createdAt,value
2017-01-23T00:00:07.431Z,-8.24
2017-01-23T00:01:07.980Z,-8.07
2017-01-23T00:02:07.483Z,-8.20
2017-01-23T00:03:08.128Z,-8.05
2017-01-23T00:04:07.676Z,-8.27
2017-01-23T00:05:07.354Z,-8.22
2017-01-23T00:06:08.073Z,-8.17
2017-01-23T00:07:07.703Z,-8.19
2017-01-23T00:08:07.422Z,-8.41
2017-01-23T00:09:08.070Z,-8.30
2017-01-23T00:10:07.704Z,-8.19
2017-01-23T00:11:07.451Z,-8.14
2017-01-23T00:12:08.015Z,-8.18
2017-01-23T00:13:07.542Z,-8.09
2017-01-23T00:14:08.011Z,-8.34
2017-01-23T00:15:07.583Z,-8.25
2017-01-23T00:16:08.116Z,-8.37
2017-01-23T00:17:07.752Z,-8.26
2017-01-23T00:18:07.248Z,-8.22
2017-01-23T00:19:07.903Z,-8.37
2017-01-23T00:20:07.571Z,-8.58
2017-01-23T00:21:08.132Z,-8.58
2017-01-23T00:22:07.782Z,-8.61
2017-01-23T00:23:07.359Z,-8.43
2017-01-23T00:24:07.965Z,-8.27
2017-01-23T00:25:07.473Z,-8.37
2017-01-23T00:26:08.067Z,-8.42
2017-01-23T00:27:07.648Z,-8.50
2017-01-23T00:28:07.304Z,-8.55
2017-01-23T00:29:08.007Z,-8.35
2017-01-23T00:30:07.647Z,-8.24
2017-01-23T00:31:07.155Z,-8.28
2017-01-23T00:32:07.653Z,-8.43
2017-01-23T00:33:07.207Z,-8.43
2017-01-23T00:34:07.857Z,-8.50
2017-01-23T00:35:07.438Z,-8.37
2017-01-23T00:36:08.046Z,-8.60
2017-01-23T00:37:07.641Z,-8.58
2017-01-23T00:38:07.146Z,-8.30
2017-01-23T00:39:07.825Z,-8.45
2017-01-23T00:40:07.556Z,-8.56
2017-01-23T00:41:08.182Z,-8.58
2017-01-23T00:42:07.618Z,-8.85
2017-01-23T00:43:07.325Z,-8.67
2017-01-23T00:44:07.918Z,-8.85
2017-01-23T00:45:07.435Z,-9.00
2017-01-23T00:46:07.953Z,-8.71
2017-01-23T00:47:07.515Z,-9.03
2017-01-23T00:48:08.073Z,-8.46
2017-01-23T00:49:07.905Z,-8.43
2017-01-23T00:50:07.418Z,-8.58
2017-01-23T00:51:07.978Z,-8.75
2017-01-23T00:52:07.526Z,-8.63
2017-01-23T00:53:08.067Z,-8.60
2017-01-23T00:54:07.688Z,-8.77
2017-01-23T00:55:07.204Z,-8.41
2017-01-23T00:56:07.794Z,-8.54
2017-01-23T00:57:07.322Z,-8.50
2017-01-23T00:58:07.787Z,-8.59
2017-01-23T00:59:07.504Z,-8.79
2017-01-23T01:00:07.972Z,-8.87
2017-01-23T01:01:07.415Z,-8.65
2017-01-23T01:02:07.504Z,-8.76
2017-01-23T01:03:07.345Z,-8.83
2017-01-23T01:04:07.973Z,-8.74
2017-01-23T01:05:07.903Z,-8.75
2017-01-23T01:06:07.083Z,-8.64
2017-01-23T01:07:07.692Z,-8.67
2017-01-23T01:08:07.211Z,-8.73
2017-01-23T01:09:07.880Z,-8.61
2017-01-23T01:10:07.659Z,-8.70
2017-01-23T01:11:07.234Z,-8.63
2017-01-23T01:12:07.748Z,-8.69
2017-01-23T01:13:07.116Z,-8.51
2017-01-23T01:14:07.692Z,-8.69
2017-01-23T01:15:07.445Z,-8.69
2017-01-23T01:16:08.038Z,-8.65
2017-01-23T01:17:07.803Z,-8.51
2017-01-23T01:18:07.362Z,-8.64
2017-01-23T01:19:07.881Z,-9.06
2017-01-23T01:20:08.140Z,-9.35
2017-01-23T01:21:07.770Z,-9.21
2017-01-23T01:22:07.451Z,-8.89
2017-01-23T01:23:08.080Z,-8.84
2017-01-23T01:24:07.705Z,-8.72
2017-01-23T01:25:07.324Z,-8.62
2017-01-23T01:26:07.181Z,-8.77
2017-01-23T01:27:07.625Z,-8.73
2017-01-23T01:28:08.098Z,-8.62
2017-01-23T01:29:07.601Z,-8.62
2017-01-23T01:30:07.674Z,-8.67
2017-01-23T01:31:07.312Z,-8.77
2017-01-23T01:32:07.850Z,-8.61
2017-01-23T01:33:07.542Z,-8.59
2017-01-23T01:34:08.167Z,-8.75
2017-01-23T01:35:07.900Z,-8.44
2017-01-23T01:36:07.504Z,-8.89
2017-01-23T01:37:08.028Z,-8.92
2017-01-23T01:38:07.457Z,-8.87
2017-01-23T01:39:07.906Z,-9.00
2017-01-23T01:40:07.256Z,-8.51
2017-01-23T01:41:07.576Z,-8.64
2017-01-23T01:42:08.092Z,-8.71
2017-01-23T01:43:08.359Z,-8.74
2017-01-23T01:44:07.991Z,-8.83
2017-01-23T01:45:07.552Z,-8.85
2017-01-23T01:46:07.977Z,-8.88
2017-01-23T01:47:08.159Z,-8.80
2017-01-23T01:48:07.640Z,-9.02
2017-01-23T01:49:07.096Z,-8.85
2017-01-23T01:50:07.692Z,-8.80
2017-01-23T01:51:07.160Z,-8.96
2017-01-23T01:52:07.804Z,-9.23
2017-01-23T01:53:07.257Z,-9.08
2017-01-23T01:54:07.428Z,-9.17
2017-01-23T01:55:07.971Z,-9.12
2017-01-23T01:56:07.550Z,-9.50
2017-01-23T01:57:08.120Z,-9.10
2017-01-23T01:58:07.644Z,-8.87
2017-01-23T01:59:07.089Z,-8.71
2017-01-23T02:00:07.613Z,-8.90
2017-01-23T02:01:07.320Z,-8.90
2017-01-23T02:02:07.770Z,-8.95
2017-01-23T02:03:07.299Z,-9.23
2017-01-23T02:04:07.890Z,-9.10
2017-01-23T02:05:07.591Z,-9.03
2017-01-23T02:06:07.261Z,-8.89
2017-01-23T02:07:07.874Z,-9.29
2017-01-23T02:08:07.471Z,-9.33
2017-01-23T02:09:08.103Z,-9.35
2017-01-23T02:10:07.647Z,-9.14
2017-01-23T02:11:07.294Z,-8.77
2017-01-23T02:12:08.081Z,-9.04
2017-01-23T02:13:07.689Z,-8.98
2017-01-23T02:14:07.903Z,-9.14
2017-01-23T02:15:07.889Z,-9.25
2017-01-23T02:16:07.685Z,-8.88
2017-01-23T02:17:07.447Z,-9.17
2017-01-23T02:18:07.876Z,-9.11
2017-01-23T02:19:07.215Z,-9.04
2017-01-23T02:20:07.453Z,-8.95
2017-01-23T02:21:08.121Z,-9.22
2017-01-23T02:22:07.604Z,-9.17
2017-01-23T02:23:07.399Z,-9.44
2017-01-23T02:24:08.113Z,-8.94
2017-01-23T02:25:07.720Z,-9.07
2017-01-23T02:26:07.317Z,-9.15
2017-01-23T02:27:08.110Z,-8.97
2017-01-23T02:28:07.815Z,-8.86
2017-01-23T02:29:07.276Z,-8.62
2017-01-23T02:30:07.807Z,-8.82
2017-01-23T02:31:07.247Z,-9.02
2017-01-23T02:32:07.157Z,-9.04
2017-01-23T02:33:07.601Z,-9.02
2017-01-23T02:34:07.163Z,-8.82
2017-01-23T02:35:07.899Z,-9.31
2017-01-23T02:36:07.648Z,-9.31
2017-01-23T02:37:07.324Z,-9.00
2017-01-23T02:38:07.997Z,-9.08
2017-01-23T02:39:07.804Z,-8.90
2017-01-23T02:40:07.351Z,-9.23
2017-01-23T02:41:07.892Z,-9.02
2017-01-23T02:42:07.454Z,-9.30
2017-01-23T02:43:07.946Z,-9.30
2017-01-23T02:44:07.697Z,-9.21
2017-01-23T02:45:07.425Z,-9.35
2017-01-23T02:46:08.066Z,-9.35
2017-01-23T02:47:07.561Z,-9.54
2017-01-23T02:48:08.118Z,-9.60
2017-01-23T02:49:07.708Z,-9.58
2017-01-23T02:50:07.306Z,-9.16
2017-01-23T02:51:07.901Z,-8.92
2017-01-23T02:52:07.458Z,-9.02
2017-01-23T02:53:08.013Z,-9.01
2017-01-23T02:54:07.514Z,-9.17
2017-01-23T02:55:08.128Z,-9.18
2017-01-23T02:56:07.666Z,-9.27
2017-01-23T02:57:07.337Z,-9.34
2017-01-23T02:58:08.123Z,-9.25
2017-01-23T02:59:07.749Z,-9.43
2017-01-23T03:00:07.343Z,-9.36
2017-01-23T03:01:07.884Z,-9.32
2017-01-23T03:02:07.562Z,-9.49
2017-01-23T03:03:08.175Z,-9.78
2017-01-23T03:04:07.689Z,-9.69
2017-01-23T03:05:07.203Z,-9.88
2017-01-23T03:06:07.827Z,-9.51
2017-01-23T03:07:07.402Z,-9.92
2017-01-23T03:08:07.968Z,-9.64
2017-01-23T03:09:07.641Z,-9.60
2017-01-23T03:10:07.333Z,-9.54
2017-01-23T03:11:07.998Z,-9.44
2017-01-23T03:12:07.738Z,-9.13
2017-01-23T03:13:07.311Z,-9.17
2017-01-23T03:14:07.904Z,-9.14
2017-01-23T03:15:07.550Z,-9.16
2017-01-23T03:16:08.267Z,-9.28
2017-01-23T03:17:08.025Z,-9.20
2017-01-23T03:18:07.592Z,-9.48
2017-01-23T03:19:07.234Z,-9.60
2017-01-23T03:20:07.879Z,-9.20
2017-01-23T03:21:07.535Z,-8.96
2017-01-23T03:22:08.059Z,-8.78
2017-01-23T03:23:08.153Z,-8.86
2017-01-23T03:24:07.688Z,-8.91
2017-01-23T03:25:07.167Z,-8.89
2017-01-23T03:26:07.795Z,-9.14
2017-01-23T03:27:07.411Z,-9.14
2017-01-23T03:28:07.991Z,-8.94
2017-01-23T03:29:07.587Z,-9.10
2017-01-23T03:30:07.273Z,-8.93
2017-01-23T03:31:07.801Z,-9.01
2017-01-23T03:32:07.356Z,-9.09
2017-01-23T03:33:07.958Z,-8.80
2017-01-23T03:34:07.481Z,-9.03
2017-01-23T03:35:08.093Z,-9.15
2017-01-23T03:36:07.582Z,-9.56
2017-01-23T03:37:07.134Z,-9.24
2017-01-23T03:38:07.805Z,-9.21
2017-01-23T03:39:07.610Z,-9.32
2017-01-23T03:40:07.569Z,-9.34
2017-01-23T03:41:07.245Z,-9.45
2017-01-23T03:42:07.886Z,-9.32
2017-01-23T03:43:07.430Z,-9.23
2017-01-23T03:44:08.028Z,-9.60
2017-01-23T03:45:07.495Z,-9.18
2017-01-23T03:46:08.073Z,-8.98
2017-01-23T03:47:07.662Z,-9.00
2017-01-23T03:48:07.106Z,-8.94
2017-01-23T03:49:07.595Z,-9.10
2017-01-23T03:50:26.986Z,-9.16
2017-01-23T03:51:07.785Z,-9.30
2017-01-23T03:52:07.554Z,-9.20
2017-01-23T03:53:08.094Z,-9.10
2017-01-23T03:54:07.962Z,-9.19
2017-01-23T03:55:07.628Z,-9.21
2017-01-23T03:56:07.082Z,-9.32
2017-01-23T03:57:07.686Z,-9.51
2017-01-23T03:58:07.166Z,-9.45
2017-01-23T03:59:07.761Z,-9.36
2017-01-23T04:00:07.405Z,-9.42
2017-01-23T04:01:07.985Z,-9.39
2017-01-23T04:02:07.608Z,-9.52
2017-01-23T04:03:07.317Z,-9.50
2017-01-23T04:04:07.876Z,-9.63
2017-01-23T04:05:07.484Z,-9.51
2017-01-23T04:06:08.032Z,-9.53
2017-01-23T04:07:07.650Z,-9.76
2017-01-23T04:08:07.195Z,-9.74
2017-01-23T04:09:07.886Z,-9.52
2017-01-23T04:10:07.483Z,-9.73
2017-01-23T04:11:07.643Z,-9.67
2017-01-23T04:12:07.456Z,-9.81
2017-01-23T04:13:08.035Z,-9.63
2017-01-23T04:14:07.486Z,-9.71
2017-01-23T04:15:07.284Z,-9.94
2017-01-23T04:16:07.847Z,-9.97
2017-01-23T04:17:07.578Z,-9.90
2017-01-23T04:18:08.218Z,-9.80
2017-01-23T04:19:07.802Z,-9.75
2017-01-23T04:20:07.352Z,-9.56
2017-01-23T04:21:07.911Z,-9.36
2017-01-23T04:22:07.770Z,-9.57
2017-01-23T04:23:07.407Z,-9.42
2017-01-23T04:24:07.491Z,-9.84
2017-01-23T04:25:08.072Z,-10.18
2017-01-23T04:26:07.762Z,-10.31
2017-01-23T04:27:07.265Z,-10.09
2017-01-23T04:28:07.819Z,-9.91
2017-01-23T04:29:07.347Z,-9.76
2017-01-23T04:30:07.875Z,-9.85
2017-01-23T04:31:07.437Z,-9.93
2017-01-23T04:32:07.973Z,-9.75
2017-01-23T04:33:07.480Z,-9.99
2017-01-23T04:34:08.065Z,-9.81
2017-01-23T04:35:07.570Z,-9.68
2017-01-23T04:36:08.142Z,-9.96
2017-01-23T04:37:07.909Z,-10.14
2017-01-23T04:38:07.486Z,-10.06
2017-01-23T04:39:08.100Z,-10.18
2017-01-23T04:40:07.586Z,-9.91
2017-01-23T04:41:07.097Z,-10.13
2017-01-23T04:42:07.641Z,-9.98
2017-01-23T04:43:07.170Z,-9.67
2017-01-23T04:44:07.776Z,-9.87
2017-01-23T04:45:07.512Z,-9.84
2017-01-23T04:46:08.137Z,-9.88
2017-01-23T04:47:07.839Z,-9.85
2017-01-23T04:48:07.393Z,-9.60
2017-01-23T04:49:07.986Z,-9.61
2017-01-23T04:50:07.573Z,-10.03
2017-01-23T04:51:08.187Z,-10.17
2017-01-23T04:52:07.773Z,-9.91
2017-01-23T04:53:07.257Z,-9.98
2017-01-23T04:54:07.819Z,-10.11
2017-01-23T04:55:07.328Z,-10.15
2017-01-23T04:56:07.925Z,-9.98
2017-01-23T04:57:07.780Z,-10.44
2017-01-23T04:58:07.325Z,-10.44
2017-01-23T04:59:07.895Z,-9.88
2017-01-23T05:00:07.677Z,-10.02
2017-01-23T05:01:07.188Z,-9.89
2017-01-23T05:02:07.810Z,-9.64
2017-01-23T05:03:07.395Z,-9.92
2017-01-23T05:04:07.900Z,-9.97
2017-01-23T05:05:07.560Z,-10.10
2017-01-23T05:06:08.309Z,-9.95
2017-01-23T05:07:07.782Z,-9.96
2017-01-23T05:08:08.138Z,-9.76
2017-01-23T05:09:07.749Z,-10.04
2017-01-23T05:10:07.326Z,-10.13
2017-01-23T05:11:07.874Z,-10.05
2017-01-23T05:12:07.549Z,-10.40
2017-01-23T05:13:08.089Z,-10.36
2017-01-23T05:14:07.678Z,-10.15
2017-01-23T05:15:08.018Z,-10.20
2017-01-23T05:16:07.717Z,-10.17
2017-01-23T05:17:07.453Z,-10.26
2017-01-23T05:18:07.157Z,-10.03
2017-01-23T05:19:07.676Z,-9.86
2017-01-23T05:20:07.523Z,-9.80
2017-01-23T05:21:08.188Z,-10.15
2017-01-23T05:22:08.038Z,-9.90
2017-01-23T05:23:07.605Z,-9.98
2017-01-23T05:24:07.203Z,-10.03
2017-01-23T05:25:10.474Z,-10.20
2017-01-23T05:26:07.496Z,-10.19
2017-01-23T05:27:08.168Z,-9.87
2017-01-23T05:28:07.990Z,-9.99
2017-01-23T05:29:07.705Z,-10.04
2017-01-23T05:30:07.194Z,-10.45
2017-01-23T05:31:07.793Z,-10.39
2017-01-23T05:32:07.370Z,-10.14
2017-01-23T05:33:08.893Z,-10.41
2017-01-23T05:34:07.711Z,-10.57
2017-01-23T05:35:07.245Z,-10.45
2017-01-23T05:36:07.920Z,-10.33
2017-01-23T05:37:07.449Z,-10.47
2017-01-23T05:38:07.997Z,-10.49
2017-01-23T05:39:07.617Z,-10.52
2017-01-23T05:40:07.490Z,-10.59
2017-01-23T05:41:08.188Z,-10.31
2017-01-23T05:42:07.745Z,-10.43
2017-01-23T05:43:07.466Z,-10.21
2017-01-23T05:44:08.066Z,-10.31
2017-01-23T05:45:07.604Z,-10.17
2017-01-23T05:46:07.129Z,-10.05
2017-01-23T05:47:07.733Z,-9.97
2017-01-23T05:48:07.418Z,-10.17
2017-01-23T05:49:07.332Z,-10.30
2017-01-23T05:50:07.889Z,-10.26
2017-01-23T05:51:07.646Z,-10.28
2017-01-23T05:52:07.359Z,-10.21
2017-01-23T05:53:07.928Z,-10.08
2017-01-23T05:54:07.516Z,-10.10
2017-01-23T05:55:08.043Z,-10.19
2017-01-23T05:56:07.496Z,-10.40
2017-01-23T05:57:08.277Z,-10.45
2017-01-23T05:58:07.872Z,-10.21
2017-01-23T05:59:07.415Z,-10.17
2017-01-23T06:00:08.022Z,-10.11
2017-01-23T06:01:07.532Z,-10.12
2017-01-23T06:02:08.765Z,-10.31
2017-01-23T06:03:07.312Z,-9.88
2017-01-23T06:04:07.882Z,-10.11
2017-01-23T06:05:07.575Z,-10.19
2017-01-23T06:06:07.188Z,-9.91
2017-01-23T06:07:08.075Z,-10.04
2017-01-23T06:08:07.579Z,-10.17
2017-01-23T06:09:07.156Z,-10.30
2017-01-23T06:10:07.676Z,-10.02
2017-01-23T06:11:07.481Z,-9.80
2017-01-23T06:12:08.020Z,-9.89
2017-01-23T06:13:07.567Z,-9.98
2017-01-23T06:14:08.093Z,-10.02
2017-01-23T06:15:07.684Z,-10.12
2017-01-23T06:16:07.244Z,-10.29
2017-01-23T06:17:08.133Z,-10.22
2017-01-23T06:18:07.615Z,-10.38
2017-01-23T06:19:07.145Z,-10.43
2017-01-23T06:20:07.933Z,-10.13
2017-01-23T06:21:07.486Z,-10.44
2017-01-23T06:22:08.029Z,-10.50
2017-01-23T06:23:07.667Z,-10.60
2017-01-23T06:24:07.347Z,-10.56
2017-01-23T06:25:07.932Z,-10.36
2017-01-23T06:26:07.609Z,-10.47
2017-01-23T06:27:07.212Z,-10.33
2017-01-23T06:28:07.733Z,-10.16
2017-01-23T06:29:07.157Z,-10.04
2017-01-23T06:30:07.983Z,-9.96
2017-01-23T06:31:07.486Z,-10.18
2017-01-23T06:32:08.090Z,-10.17
2017-01-23T06:33:07.594Z,-9.99
2017-01-23T06:34:07.103Z,-9.62
2017-01-23T06:35:07.699Z,-10.03
2017-01-23T06:36:07.232Z,-9.96
2017-01-23T06:37:07.948Z,-10.01
2017-01-23T06:38:07.442Z,-10.37
2017-01-23T06:39:08.046Z,-10.12
2017-01-23T06:40:07.653Z,-10.16
2017-01-23T06:41:07.139Z,-10.19
2017-01-23T06:42:07.620Z,-10.21
2017-01-23T06:43:07.342Z,-10.12
2017-01-23T06:44:08.009Z,-10.01
2017-01-23T06:45:07.574Z,-9.96
2017-01-23T06:46:07.312Z,-10.21
2017-01-23T06:47:07.935Z,-10.05
2017-01-23T06:48:07.426Z,-10.12
2017-01-23T06:49:07.988Z,-9.86
2017-01-23T06:50:07.722Z,-10.12
2017-01-23T06:51:07.261Z,-9.80
2017-01-23T06:52:07.875Z,-9.69
2017-01-23T06:53:07.551Z,-10.04
2017-01-23T06:54:07.568Z,-10.09
2017-01-23T06:55:08.116Z,-9.92
2017-01-23T06:56:07.722Z,-9.80
2017-01-23T06:57:07.267Z,-10.03
2017-01-23T06:58:08.316Z,-10.00
2017-01-23T06:59:07.914Z,-9.66
2017-01-23T07:00:07.406Z,-9.95
2017-01-23T07:01:07.992Z,-10.26
2017-01-23T07:02:07.484Z,-9.99
2017-01-23T07:03:08.115Z,-9.93
2017-01-23T07:04:07.347Z,-9.99
2017-01-23T07:05:08.137Z,-9.88
2017-01-23T07:06:07.726Z,-9.97
2017-01-23T07:07:07.431Z,-9.81
2017-01-23T07:08:08.028Z,-9.52
2017-01-23T07:09:07.774Z,-9.53
2017-01-23T07:10:07.259Z,-9.50
2017-01-23T07:11:07.880Z,-9.57
2017-01-23T07:12:07.440Z,-9.70
2017-01-23T07:13:07.998Z,-9.58
2017-01-23T07:15:07.094Z,-9.62
2017-01-23T07:15:10.785Z,-9.63
2017-01-23T07:16:07.407Z,-9.90
2017-01-23T07:17:08.058Z,-10.08
2017-01-23T07:18:17.531Z,-9.96
2017-01-23T07:19:08.123Z,-9.86
2017-01-23T07:20:07.645Z,-9.81
2017-01-23T07:21:07.111Z,-9.52
2017-01-23T07:22:07.739Z,-9.59
2017-01-23T07:23:07.245Z,-9.32
2017-01-23T07:24:07.811Z,-9.20
2017-01-23T07:25:07.395Z,-9.34
2017-01-23T07:26:07.870Z,-9.26
2017-01-23T07:27:07.413Z,-9.19
2017-01-23T07:28:08.001Z,-9.21
2017-01-23T07:29:07.506Z,-9.35
2017-01-23T07:30:08.080Z,-9.31
2017-01-23T07:31:07.652Z,-9.06
2017-01-23T07:32:07.207Z,-9.11
2017-01-23T07:33:07.755Z,-9.38
2017-01-23T07:34:07.243Z,-9.47
2017-01-23T07:35:07.852Z,-9.20
2017-01-23T07:36:07.349Z,-9.14
2017-01-23T07:37:07.934Z,-9.04
2017-01-23T07:38:07.629Z,-9.13
2017-01-23T07:39:07.477Z,-8.93
2017-01-23T07:40:08.044Z,-9.05
2017-01-23T07:41:07.544Z,-8.87
2017-01-23T07:42:08.202Z,-9.07
2017-01-23T07:43:07.702Z,-8.90
2017-01-23T07:44:07.233Z,-8.84
2017-01-23T07:45:07.763Z,-8.71
2017-01-23T07:46:07.386Z,-8.63
2017-01-23T07:47:08.573Z,-8.79
2017-01-23T07:48:07.344Z,-9.06
2017-01-23T07:49:07.908Z,-8.94
2017-01-23T07:50:07.473Z,-8.96
2017-01-23T07:51:07.963Z,-8.87
2017-01-23T07:52:07.502Z,-8.61
2017-01-23T07:53:08.071Z,-8.77
2017-01-23T07:54:07.622Z,-8.50
2017-01-23T07:55:07.117Z,-8.84
2017-01-23T07:56:07.674Z,-8.49
2017-01-23T07:57:07.341Z,-8.44
2017-01-23T07:58:08.778Z,-8.52
2017-01-23T07:59:07.347Z,-8.58
2017-01-23T08:00:08.124Z,-8.27
2017-01-23T08:01:07.704Z,-8.39
2017-01-23T08:02:07.384Z,-8.36
2017-01-23T08:03:07.939Z,-8.55
2017-01-23T08:04:07.456Z,-8.54
2017-01-23T08:05:07.971Z,-8.65
2017-01-23T08:06:07.600Z,-8.37
2017-01-23T08:07:07.296Z,-8.32
2017-01-23T08:08:07.964Z,-8.18
2017-01-23T08:09:07.997Z,-8.28
2017-01-23T08:10:07.684Z,-8.07
2017-01-23T08:11:07.539Z,-7.84
2017-01-23T08:12:08.112Z,-8.01
2017-01-23T08:13:07.606Z,-7.93
2017-01-23T08:14:07.129Z,-7.80
2017-01-23T08:15:07.699Z,-7.56
2017-01-23T08:16:07.293Z,-7.52
2017-01-23T08:17:08.068Z,-7.39
2017-01-23T08:18:07.812Z,-7.39
2017-01-23T08:19:07.590Z,-7.84
2017-01-23T08:20:07.229Z,-7.65
2017-01-23T08:21:07.827Z,-7.58
2017-01-23T08:22:07.407Z,-7.47
2017-01-23T08:23:07.917Z,-7.36
2017-01-23T08:24:07.521Z,-7.19
2017-01-23T08:25:08.097Z,-7.04
2017-01-23T08:26:07.554Z,-7.25
2017-01-23T08:27:08.172Z,-7.05
2017-01-23T08:28:07.779Z,-7.08
2017-01-23T08:29:07.337Z,-7.16
2017-01-23T08:30:07.982Z,-7.36
2017-01-23T08:31:07.771Z,-7.41
2017-01-23T08:32:07.298Z,-7.59
2017-01-23T08:33:07.848Z,-7.43
2017-01-23T08:34:07.345Z,-7.30
2017-01-23T08:35:07.881Z,-7.28
2017-01-23T08:36:07.425Z,-7.22
2017-01-23T08:37:07.997Z,-7.32
2017-01-23T08:38:07.543Z,-6.97
2017-01-23T08:39:08.181Z,-7.06
2017-01-23T08:40:07.793Z,-6.89
2017-01-23T08:41:07.592Z,-6.85
2017-01-23T08:42:08.042Z,-6.57
2017-01-23T08:43:08.067Z,-6.88
2017-01-23T08:44:07.661Z,-6.59
2017-01-23T08:45:07.199Z,-6.62
2017-01-23T08:46:07.760Z,-6.63
2017-01-23T08:47:07.312Z,-7.08
2017-01-23T08:48:07.821Z,-6.77
2017-01-23T08:49:07.285Z,-7.07
2017-01-23T08:50:07.517Z,-6.99
2017-01-23T08:51:08.062Z,-6.89
2017-01-23T08:52:07.767Z,-6.66
2017-01-23T08:53:07.207Z,-6.54
2017-01-23T08:54:07.796Z,-6.65
2017-01-23T08:55:07.253Z,-6.74
2017-01-23T08:56:08.027Z,-6.69
2017-01-23T08:57:07.583Z,-6.69
2017-01-23T08:58:07.091Z,-6.66
2017-01-23T08:59:07.600Z,-6.46
2017-01-23T09:00:07.093Z,-6.44
2017-01-23T09:01:07.624Z,-6.45
2017-01-23T09:02:08.450Z,-6.29
2017-01-23T09:03:08.019Z,-6.16
2017-01-23T09:04:07.589Z,-6.12
2017-01-23T09:05:07.185Z,-6.14
2017-01-23T09:06:07.764Z,-6.30
2017-01-23T09:07:07.454Z,-6.28
2017-01-23T09:08:07.974Z,-6.21
2017-01-23T09:09:07.641Z,-6.03
2017-01-23T09:10:07.194Z,-6.11
2017-01-23T09:11:07.677Z,-6.16
2017-01-23T09:12:07.759Z,-6.11
2017-01-23T09:13:07.337Z,-6.10
2017-01-23T09:14:07.939Z,-5.93
2017-01-23T09:15:07.825Z,-5.98
2017-01-23T09:16:07.414Z,-5.96
2017-01-23T09:17:08.122Z,-5.89
2017-01-23T09:18:07.706Z,-5.98
2017-01-23T09:19:07.201Z,-6.00
2017-01-23T09:20:07.771Z,-6.00
2017-01-23T09:21:07.381Z,-6.17
2017-01-23T09:22:08.053Z,-6.02
2017-01-23T09:23:07.551Z,-6.00
2017-01-23T09:24:08.084Z,-5.79
2017-01-23T09:25:07.343Z,-5.69
2017-01-23T09:26:07.883Z,-5.75
2017-01-23T09:27:07.396Z,-5.66
2017-01-23T09:28:07.930Z,-5.69
2017-01-23T09:29:07.479Z,-5.61
2017-01-23T09:30:08.093Z,-5.37
2017-01-23T09:31:07.708Z,-5.24
2017-01-23T09:32:07.322Z,-5.61
2017-01-23T09:33:07.858Z,-5.58
2017-01-23T09:34:07.429Z,-5.46
2017-01-23T09:35:07.955Z,-5.42
2017-01-23T09:36:07.552Z,-5.34
2017-01-23T09:37:08.076Z,-5.32
2017-01-23T09:38:07.640Z,-5.23
2017-01-23T09:39:07.236Z,-5.27
2017-01-23T09:40:07.785Z,-5.25
2017-01-23T09:41:07.410Z,-5.11
2017-01-23T09:42:08.023Z,-5.12
2017-01-23T09:43:07.640Z,-5.05
2017-01-23T09:44:07.096Z,-5.23
2017-01-23T09:45:07.627Z,-5.31
2017-01-23T09:46:07.198Z,-5.09
2017-01-23T09:47:07.671Z,-5.24
2017-01-23T09:48:07.331Z,-4.98
2017-01-23T09:49:08.978Z,-4.91
2017-01-23T09:50:07.899Z,-5.01
2017-01-23T09:51:07.418Z,-4.69
2017-01-23T09:52:07.985Z,-4.89
2017-01-23T09:53:07.552Z,-5.01
2017-01-23T09:54:08.132Z,-4.73
2017-01-23T09:55:07.627Z,-4.63
2017-01-23T09:56:07.392Z,-4.57
2017-01-23T09:57:07.908Z,-4.70
2017-01-23T09:58:07.331Z,-4.65
2017-01-23T09:59:07.469Z,-4.67
2017-01-23T10:00:08.049Z,-4.71
2017-01-23T10:01:07.846Z,-4.56
2017-01-23T10:02:07.353Z,-4.58
2017-01-23T10:03:07.953Z,-4.56
2017-01-23T10:04:07.575Z,-4.63
2017-01-23T10:05:08.146Z,-4.45
2017-01-23T10:06:07.703Z,-4.38
2017-01-23T10:07:21.732Z,-4.40
2017-01-23T10:08:07.321Z,-4.33
2017-01-23T10:09:08.014Z,-4.23
2017-01-23T10:10:07.609Z,-4.27
2017-01-23T10:11:07.212Z,-4.30
2017-01-23T10:12:07.797Z,-4.34
2017-01-23T10:13:07.278Z,-4.11
2017-01-23T10:14:07.762Z,-4.22
2017-01-23T10:15:07.251Z,-4.14
2017-01-23T10:16:07.980Z,-4.10
2017-01-23T10:17:07.860Z,-4.04
2017-01-23T10:18:07.293Z,-3.89
2017-01-23T10:19:07.800Z,-4.22
2017-01-23T10:20:07.376Z,-4.05
2017-01-23T10:21:07.940Z,-3.88
2017-01-23T10:22:07.402Z,-3.98
2017-01-23T10:23:07.886Z,-4.05
2017-01-23T10:24:07.445Z,-4.08
2017-01-23T10:25:08.039Z,-4.07
2017-01-23T10:26:07.681Z,-3.99
2017-01-23T10:27:07.184Z,-4.05
2017-01-23T10:28:07.956Z,-3.91
2017-01-23T10:29:07.530Z,-3.81
2017-01-23T10:30:08.151Z,-3.60
2017-01-23T10:31:07.721Z,-3.59
2017-01-23T10:32:07.630Z,-3.58
2017-01-23T10:33:07.096Z,-3.62
2017-01-23T10:34:07.569Z,-3.78
2017-01-23T10:35:08.043Z,-3.81
2017-01-23T10:36:07.665Z,-3.77
2017-01-23T10:37:07.217Z,-3.75
2017-01-23T10:38:07.720Z,-3.70
2017-01-23T10:39:07.334Z,-3.61
2017-01-23T10:40:07.845Z,-3.56
2017-01-23T10:41:07.370Z,-3.78
2017-01-23T10:42:07.911Z,-3.68
2017-01-23T10:43:07.483Z,-3.74
2017-01-23T10:44:07.936Z,-3.65
2017-01-23T10:45:07.950Z,-3.51
2017-01-23T10:46:07.492Z,-3.42
2017-01-23T10:47:08.127Z,-3.67
2017-01-23T10:48:07.713Z,-3.63
2017-01-23T10:49:07.256Z,-3.57
2017-01-23T10:50:07.833Z,-3.48
2017-01-23T10:51:07.473Z,-3.28
2017-01-23T10:52:08.245Z,-3.46
2017-01-23T10:53:07.715Z,-3.45
2017-01-23T10:54:07.363Z,-3.30
2017-01-23T10:55:07.938Z,-3.32
2017-01-23T10:56:07.543Z,-3.25
2017-01-23T10:57:08.077Z,-3.25
2017-01-23T10:58:07.603Z,-3.25
2017-01-23T10:59:07.352Z,-3.05
2017-01-23T11:00:07.959Z,-3.22
2017-01-23T11:01:07.496Z,-3.25
2017-01-23T11:02:08.074Z,-3.30
2017-01-23T11:03:07.543Z,-3.26
2017-01-23T11:04:07.579Z,-3.12
2017-01-23T11:05:08.139Z,-3.00
2017-01-23T11:06:07.784Z,-2.94
2017-01-23T11:07:07.250Z,-3.00
2017-01-23T11:08:07.717Z,-3.00
2017-01-23T11:09:07.429Z,-3.00
2017-01-23T11:10:08.034Z,-3.00
2017-01-23T11:11:07.542Z,-3.03
2017-01-23T11:12:08.169Z,-2.93
2017-01-23T11:13:08.017Z,-2.97
2017-01-23T11:14:08.563Z,-2.93
2017-01-23T11:15:07.263Z,-2.94
2017-01-23T11:16:07.863Z,-2.88
2017-01-23T11:17:07.626Z,-2.87
2017-01-23T11:18:07.223Z,-2.72
2017-01-23T11:19:07.864Z,-2.77
2017-01-23T11:20:07.446Z,-2.63
2017-01-23T11:21:07.923Z,-2.71
2017-01-23T11:22:07.570Z,-2.73
2017-01-23T11:23:08.016Z,-2.75
2017-01-23T11:24:07.904Z,-2.58
2017-01-23T11:25:07.431Z,-2.71
2017-01-23T11:26:08.227Z,-2.64
2017-01-23T11:27:08.121Z,-2.64
2017-01-23T11:28:07.554Z,-2.59
2017-01-23T11:29:08.133Z,-2.60
2017-01-23T11:30:07.738Z,-2.52
2017-01-23T11:31:07.452Z,-2.46
2017-01-23T11:32:08.068Z,-2.64
2017-01-23T11:33:07.525Z,-2.59
2017-01-23T11:34:08.110Z,-2.51
2017-01-23T11:35:07.766Z,-2.55
2017-01-23T11:36:07.529Z,-2.53
2017-01-23T11:37:08.453Z,-2.39
2017-01-23T11:38:07.222Z,-2.51
2017-01-23T11:39:07.872Z,-2.45
2017-01-23T11:40:07.521Z,-2.40
2017-01-23T11:41:08.117Z,-2.51
2017-01-23T11:42:07.718Z,-2.35
2017-01-23T11:43:07.253Z,-2.16
2017-01-23T11:44:07.805Z,-2.17
2017-01-23T11:45:07.429Z,-2.21
2017-01-23T11:46:07.984Z,-2.29
2017-01-23T11:47:07.705Z,-2.14
2017-01-23T11:48:07.213Z,-2.19
2017-01-23T11:49:08.130Z,-2.16
2017-01-23T11:50:07.645Z,-2.18
2017-01-23T11:51:07.189Z,-2.14
2017-01-23T11:52:07.846Z,-2.33
2017-01-23T11:53:07.426Z,-2.28
2017-01-23T11:54:08.005Z,-2.24
2017-01-23T11:55:07.688Z,-2.30
2017-01-23T11:56:07.430Z,-2.28
2017-01-23T11:57:08.017Z,-2.27
2017-01-23T11:58:07.571Z,-2.15
2017-01-23T11:59:08.123Z,-1.96
2017-01-23T12:00:07.667Z,-2.05
2017-01-23T12:01:07.191Z,-2.18
2017-01-23T12:02:07.715Z,-2.12
2017-01-23T12:03:07.191Z,-2.09
2017-01-23T12:04:07.679Z,-2.26
2017-01-23T12:05:07.467Z,-2.18
2017-01-23T12:06:08.020Z,-2.22
2017-01-23T12:07:07.572Z,-2.19
2017-01-23T12:08:08.231Z,-2.10
2017-01-23T12:09:07.840Z,-2.14
2017-01-23T12:10:07.336Z,-2.11
2017-01-23T12:11:07.891Z,-2.03
2017-01-23T12:12:07.419Z,-1.92
2017-01-23T12:13:07.936Z,-2.00
2017-01-23T12:14:07.475Z,-1.98
2017-01-23T12:15:07.996Z,-2.01
2017-01-23T12:16:07.803Z,-2.02
2017-01-23T12:17:07.466Z,-2.14
2017-01-23T12:18:08.073Z,-2.16
2017-01-23T12:19:07.708Z,-2.00
2017-01-23T12:20:07.178Z,-1.99
2017-01-23T12:21:07.540Z,-1.94
2017-01-23T12:22:08.109Z,-2.00
2017-01-23T12:23:07.541Z,-1.89
2017-01-23T12:24:08.053Z,-1.80
2017-01-23T12:25:07.639Z,-1.86
2017-01-23T12:26:07.361Z,-1.83
2017-01-23T12:27:07.987Z,-1.66
2017-01-23T12:28:07.470Z,-1.61
2017-01-23T12:29:08.010Z,-1.71
2017-01-23T12:30:07.596Z,-1.77
2017-01-23T12:31:07.140Z,-1.86
2017-01-23T12:32:07.656Z,-1.81
2017-01-23T12:33:07.282Z,-1.80
2017-01-23T12:34:07.804Z,-1.81
2017-01-23T12:35:07.390Z,-1.73
2017-01-23T12:36:07.988Z,-1.87
2017-01-23T12:37:07.578Z,-1.81
2017-01-23T12:38:08.196Z,-1.76
2017-01-23T12:39:07.964Z,-1.80
2017-01-23T12:40:07.685Z,-1.83
2017-01-23T12:41:07.250Z,-1.73
2017-01-23T12:42:07.827Z,-1.74
2017-01-23T12:43:07.414Z,-1.72
2017-01-23T12:44:08.064Z,-1.83
2017-01-23T12:45:07.669Z,-1.71
2017-01-23T12:46:07.238Z,-1.81
2017-01-23T12:47:07.823Z,-1.62
2017-01-23T12:48:07.409Z,-1.72
2017-01-23T12:49:07.978Z,-1.77